sensor_id;sensor_type;location;lat;lon;timestamp;P1;durP1;ratioP1;P2;durP2;ratioP2
77362;SDS011;66428;47.322;9.432;2023-04-03T00:03:31;1.70;;;0.93;;
77362;SDS011;66428;47.322;9.432;2023-04-03T00:05:58;0.95;;;0.60;;
77362;SDS011;66428;47.322;9.432;2023-04-03T00:08:27;1.38;;;0.90;;
77362;SDS011;66428;47.322;9.432;2023-04-03T00:10:58;0.98;;;0.70;;
77362;SDS011;66428;47.322;9.432;2023-04-03T00:13:30;1.45;;;0.93;;
77362;SDS011;66428;47.322;9.432;2023-04-03T00:16:02;1.83;;;1.00;;
77362;SDS011;66428;47.322;9.432;2023-04-03T00:18:29;1.30;;;0.88;;
77362;SDS011;66428;47.322;9.432;2023-04-03T00:20:56;1.17;;;0.70;;
77362;SDS011;66428;47.322;9.432;2023-04-03T00:23:22;0.90;;;0.80;;
77362;SDS011;66428;47.322;9.432;2023-04-03T00:25:54;1.10;;;0.80;;
77362;SDS011;66428;47.322;9.432;2023-04-03T00:28:25;1.08;;;0.73;;
77362;SDS011;66428;47.322;9.432;2023-04-03T00:30:53;1.33;;;0.90;;
77362;SDS011;66428;47.322;9.432;2023-04-03T00:33:22;1.30;;;0.85;;
77362;SDS011;66428;47.322;9.432;2023-04-03T00:38:17;1.77;;;1.20;;
77362;SDS011;66428;47.322;9.432;2023-04-03T00:40:45;1.98;;;1.30;;
77362;SDS011;66428;47.322;9.432;2023-04-03T00:43:19;1.90;;;1.10;;
77362;SDS011;66428;47.322;9.432;2023-04-03T00:45:49;1.88;;;1.20;;
77362;SDS011;66428;47.322;9.432;2023-04-03T00:48:18;1.75;;;1.25;;
77362;SDS011;66428;47.322;9.432;2023-04-03T00:50:48;2.30;;;1.52;;
77362;SDS011;66428;47.322;9.432;2023-04-03T00:53:21;2.10;;;1.40;;
77362;SDS011;66428;47.322;9.432;2023-04-03T00:55:50;2.05;;;1.17;;
77362;SDS011;66428;47.322;9.432;2023-04-03T00:58:17;3.08;;;1.63;;
77362;SDS011;66428;47.322;9.432;2023-04-03T01:00:49;3.17;;;1.42;;
77362;SDS011;66428;47.322;9.432;2023-04-03T01:03:20;2.40;;;1.58;;
77362;SDS011;66428;47.322;9.432;2023-04-03T01:05:49;2.50;;;1.60;;
77362;SDS011;66428;47.322;9.432;2023-04-03T01:08:18;2.30;;;1.60;;
77362;SDS011;66428;47.322;9.432;2023-04-03T01:10:48;3.33;;;1.60;;
77362;SDS011;66428;47.322;9.432;2023-04-03T01:15:54;3.17;;;1.88;;
77362;SDS011;66428;47.322;9.432;2023-04-03T01:18:21;2.78;;;1.63;;
77362;SDS011;66428;47.322;9.432;2023-04-03T01:25:57;2.35;;;1.50;;
77362;SDS011;66428;47.322;9.432;2023-04-03T01:28:30;2.85;;;1.95;;
77362;SDS011;66428;47.322;9.432;2023-04-03T01:31:10;3.35;;;2.30;;
77362;SDS011;66428;47.322;9.432;2023-04-03T01:33:40;3.22;;;2.47;;
77362;SDS011;66428;47.322;9.432;2023-04-03T01:36:15;3.03;;;1.70;;
77362;SDS011;66428;47.322;9.432;2023-04-03T01:38:44;2.53;;;1.95;;
77362;SDS011;66428;47.322;9.432;2023-04-03T01:41:11;3.83;;;2.15;;
77362;SDS011;66428;47.322;9.432;2023-04-03T01:43:38;2.65;;;1.80;;
77362;SDS011;66428;47.322;9.432;2023-04-03T01:46:05;3.45;;;2.20;;
77362;SDS011;66428;47.322;9.432;2023-04-03T01:48:32;2.75;;;2.13;;
77362;SDS011;66428;47.322;9.432;2023-04-03T01:51:01;3.55;;;2.20;;
77362;SDS011;66428;47.322;9.432;2023-04-03T01:53:30;3.13;;;2.20;;
77362;SDS011;66428;47.322;9.432;2023-04-03T01:55:59;3.85;;;2.22;;
77362;SDS011;66428;47.322;9.432;2023-04-03T01:58:33;3.20;;;2.35;;
77362;SDS011;66428;47.322;9.432;2023-04-03T02:01:02;3.83;;;2.50;;
77362;SDS011;66428;47.322;9.432;2023-04-03T02:03:29;3.63;;;2.35;;
77362;SDS011;66428;47.322;9.432;2023-04-03T02:06:00;3.55;;;2.17;;
77362;SDS011;66428;47.322;9.432;2023-04-03T02:08:30;3.53;;;2.58;;
77362;SDS011;66428;47.322;9.432;2023-04-03T02:10:56;3.20;;;2.35;;
77362;SDS011;66428;47.322;9.432;2023-04-03T02:13:28;4.20;;;2.35;;
77362;SDS011;66428;47.322;9.432;2023-04-03T02:15:54;3.90;;;2.80;;
77362;SDS011;66428;47.322;9.432;2023-04-03T02:18:23;4.28;;;2.70;;
77362;SDS011;66428;47.322;9.432;2023-04-03T02:20:52;4.25;;;3.05;;
77362;SDS011;66428;47.322;9.432;2023-04-03T02:23:24;3.85;;;2.58;;
77362;SDS011;66428;47.322;9.432;2023-04-03T02:25:53;3.50;;;2.72;;
77362;SDS011;66428;47.322;9.432;2023-04-03T02:28:25;6.05;;;3.28;;
77362;SDS011;66428;47.322;9.432;2023-04-03T02:30:52;4.68;;;2.95;;
77362;SDS011;66428;47.322;9.432;2023-04-03T02:33:18;4.35;;;3.00;;
77362;SDS011;66428;47.322;9.432;2023-04-03T02:35:45;4.05;;;3.00;;
77362;SDS011;66428;47.322;9.432;2023-04-03T02:38:20;4.57;;;3.10;;
77362;SDS011;66428;47.322;9.432;2023-04-03T02:40:50;4.50;;;3.17;;
77362;SDS011;66428;47.322;9.432;2023-04-03T02:43:18;6.07;;;3.50;;
77362;SDS011;66428;47.322;9.432;2023-04-03T02:48:14;4.43;;;3.22;;
77362;SDS011;66428;47.322;9.432;2023-04-03T02:50:45;6.57;;;3.58;;
77362;SDS011;66428;47.322;9.432;2023-04-03T02:53:15;5.13;;;3.58;;
77362;SDS011;66428;47.322;9.432;2023-04-03T02:55:44;5.07;;;3.30;;
77362;SDS011;66428;47.322;9.432;2023-04-03T02:58:13;6.75;;;4.05;;
77362;SDS011;66428;47.322;9.432;2023-04-03T03:00:45;4.90;;;3.42;;
77362;SDS011;66428;47.322;9.432;2023-04-03T03:03:11;6.32;;;4.18;;
77362;SDS011;66428;47.322;9.432;2023-04-03T03:05:39;6.32;;;3.97;;
77362;SDS011;66428;47.322;9.432;2023-04-03T03:08:06;6.82;;;3.80;;
77362;SDS011;66428;47.322;9.432;2023-04-03T03:10:35;5.53;;;4.18;;
77362;SDS011;66428;47.322;9.432;2023-04-03T03:13:06;6.28;;;4.10;;
77362;SDS011;66428;47.322;9.432;2023-04-03T03:15:34;5.50;;;4.10;;
77362;SDS011;66428;47.322;9.432;2023-04-03T03:18:01;5.32;;;3.80;;
77362;SDS011;66428;47.322;9.432;2023-04-03T03:20:30;6.50;;;4.35;;
77362;SDS011;66428;47.322;9.432;2023-04-03T03:22:58;6.32;;;4.57;;
77362;SDS011;66428;47.322;9.432;2023-04-03T03:25:27;6.85;;;4.82;;
77362;SDS011;66428;47.322;9.432;2023-04-03T03:27:56;5.72;;;3.72;;
77362;SDS011;66428;47.322;9.432;2023-04-03T03:30:25;5.85;;;4.63;;
77362;SDS011;66428;47.322;9.432;2023-04-03T03:32:52;4.72;;;3.97;;
77362;SDS011;66428;47.322;9.432;2023-04-03T03:35:21;5.85;;;3.97;;
77362;SDS011;66428;47.322;9.432;2023-04-03T03:37:49;6.47;;;4.18;;
77362;SDS011;66428;47.322;9.432;2023-04-03T03:40:18;6.38;;;4.22;;
77362;SDS011;66428;47.322;9.432;2023-04-03T03:42:45;7.05;;;4.53;;
77362;SDS011;66428;47.322;9.432;2023-04-03T03:45:14;7.28;;;4.65;;
77362;SDS011;66428;47.322;9.432;2023-04-03T03:47:41;5.90;;;3.92;;
77362;SDS011;66428;47.322;9.432;2023-04-03T03:50:12;6.30;;;4.00;;
77362;SDS011;66428;47.322;9.432;2023-04-03T03:52:43;5.82;;;4.80;;
77362;SDS011;66428;47.322;9.432;2023-04-03T03:55:16;6.95;;;4.50;;
77362;SDS011;66428;47.322;9.432;2023-04-03T03:57:52;5.85;;;4.80;;
77362;SDS011;66428;47.322;9.432;2023-04-03T04:00:21;6.53;;;4.22;;
77362;SDS011;66428;47.322;9.432;2023-04-03T04:02:53;5.97;;;3.95;;
77362;SDS011;66428;47.322;9.432;2023-04-03T04:05:31;6.10;;;4.30;;
77362;SDS011;66428;47.322;9.432;2023-04-03T04:08:01;5.45;;;4.03;;
77362;SDS011;66428;47.322;9.432;2023-04-03T04:10:30;5.38;;;3.60;;
77362;SDS011;66428;47.322;9.432;2023-04-03T04:12:59;6.65;;;4.47;;
77362;SDS011;66428;47.322;9.432;2023-04-03T04:15:27;6.78;;;3.95;;
77362;SDS011;66428;47.322;9.432;2023-04-03T04:17:57;6.43;;;4.75;;
77362;SDS011;66428;47.322;9.432;2023-04-03T04:20:24;6.78;;;4.72;;
77362;SDS011;66428;47.322;9.432;2023-04-03T04:22:53;5.75;;;4.40;;
77362;SDS011;66428;47.322;9.432;2023-04-03T04:25:21;7.35;;;4.38;;
77362;SDS011;66428;47.322;9.432;2023-04-03T04:27:48;5.65;;;4.22;;
77362;SDS011;66428;47.322;9.432;2023-04-03T04:30:20;6.07;;;4.63;;
77362;SDS011;66428;47.322;9.432;2023-04-03T04:32:50;7.05;;;5.20;;
77362;SDS011;66428;47.322;9.432;2023-04-03T04:35:19;6.28;;;4.72;;
77362;SDS011;66428;47.322;9.432;2023-04-03T04:37:50;6.22;;;4.15;;
77362;SDS011;66428;47.322;9.432;2023-04-03T04:40:17;7.28;;;4.70;;
77362;SDS011;66428;47.322;9.432;2023-04-03T04:42:47;6.47;;;4.50;;
77362;SDS011;66428;47.322;9.432;2023-04-03T04:45:14;6.32;;;4.50;;
77362;SDS011;66428;47.322;9.432;2023-04-03T04:47:47;8.95;;;5.15;;
77362;SDS011;66428;47.322;9.432;2023-04-03T04:50:13;6.30;;;4.80;;
77362;SDS011;66428;47.322;9.432;2023-04-03T04:52:48;6.47;;;4.15;;
77362;SDS011;66428;47.322;9.432;2023-04-03T04:55:14;6.70;;;5.28;;
77362;SDS011;66428;47.322;9.432;2023-04-03T04:57:45;6.00;;;4.40;;
77362;SDS011;66428;47.322;9.432;2023-04-03T05:00:15;7.70;;;4.90;;
77362;SDS011;66428;47.322;9.432;2023-04-03T05:02:47;6.88;;;4.32;;
77362;SDS011;66428;47.322;9.432;2023-04-03T05:05:18;6.35;;;4.53;;
77362;SDS011;66428;47.322;9.432;2023-04-03T05:07:47;7.50;;;4.78;;
77362;SDS011;66428;47.322;9.432;2023-04-03T05:10:18;6.85;;;4.80;;
77362;SDS011;66428;47.322;9.432;2023-04-03T05:12:45;6.82;;;4.57;;
77362;SDS011;66428;47.322;9.432;2023-04-03T05:15:13;8.93;;;4.78;;
77362;SDS011;66428;47.322;9.432;2023-04-03T05:17:40;8.27;;;4.60;;
77362;SDS011;66428;47.322;9.432;2023-04-03T05:20:10;6.93;;;4.07;;
77362;SDS011;66428;47.322;9.432;2023-04-03T05:22:37;8.75;;;5.65;;
77362;SDS011;66428;47.322;9.432;2023-04-03T05:25:08;8.70;;;5.65;;
77362;SDS011;66428;47.322;9.432;2023-04-03T05:27:39;8.20;;;5.20;;
77362;SDS011;66428;47.322;9.432;2023-04-03T05:30:07;8.05;;;4.65;;
77362;SDS011;66428;47.322;9.432;2023-04-03T05:32:35;7.80;;;4.68;;
77362;SDS011;66428;47.322;9.432;2023-04-03T05:35:13;8.35;;;5.57;;
77362;SDS011;66428;47.322;9.432;2023-04-03T05:37:43;7.28;;;4.78;;
77362;SDS011;66428;47.322;9.432;2023-04-03T05:40:10;6.20;;;4.53;;
77362;SDS011;66428;47.322;9.432;2023-04-03T05:42:43;7.03;;;5.28;;
77362;SDS011;66428;47.322;9.432;2023-04-03T05:45:11;6.80;;;4.82;;
77362;SDS011;66428;47.322;9.432;2023-04-03T05:47:38;7.07;;;4.90;;
77362;SDS011;66428;47.322;9.432;2023-04-03T05:50:07;7.47;;;5.28;;
77362;SDS011;66428;47.322;9.432;2023-04-03T05:52:38;7.95;;;4.65;;
77362;SDS011;66428;47.322;9.432;2023-04-03T05:55:06;10.07;;;4.15;;
77362;SDS011;66428;47.322;9.432;2023-04-03T05:57:38;7.03;;;4.75;;
77362;SDS011;66428;47.322;9.432;2023-04-03T06:00:11;8.88;;;4.93;;
77362;SDS011;66428;47.322;9.432;2023-04-03T06:02:48;8.20;;;4.93;;
77362;SDS011;66428;47.322;9.432;2023-04-03T06:05:20;8.00;;;5.10;;
77362;SDS011;66428;47.322;9.432;2023-04-03T06:07:49;8.23;;;5.18;;
77362;SDS011;66428;47.322;9.432;2023-04-03T06:10:21;7.30;;;5.20;;
77362;SDS011;66428;47.322;9.432;2023-04-03T06:12:48;7.70;;;5.03;;
77362;SDS011;66428;47.322;9.432;2023-04-03T06:15:17;6.85;;;4.70;;
77362;SDS011;66428;47.322;9.432;2023-04-03T06:17:49;7.97;;;5.50;;
77362;SDS011;66428;47.322;9.432;2023-04-03T06:20:18;8.77;;;5.43;;
77362;SDS011;66428;47.322;9.432;2023-04-03T06:22:47;10.05;;;6.28;;
77362;SDS011;66428;47.322;9.432;2023-04-03T06:25:14;7.60;;;5.82;;
77362;SDS011;66428;47.322;9.432;2023-04-03T06:27:43;7.80;;;5.25;;
77362;SDS011;66428;47.322;9.432;2023-04-03T06:30:12;7.55;;;5.75;;
77362;SDS011;66428;47.322;9.432;2023-04-03T06:32:41;8.43;;;5.72;;
77362;SDS011;66428;47.322;9.432;2023-04-03T06:35:09;8.30;;;5.78;;
77362;SDS011;66428;47.322;9.432;2023-04-03T06:37:36;9.10;;;5.55;;
77362;SDS011;66428;47.322;9.432;2023-04-03T06:40:03;8.68;;;5.60;;
77362;SDS011;66428;47.322;9.432;2023-04-03T06:42:35;8.77;;;5.97;;
77362;SDS011;66428;47.322;9.432;2023-04-03T06:45:11;8.35;;;5.90;;
77362;SDS011;66428;47.322;9.432;2023-04-03T06:47:38;7.70;;;5.45;;
77362;SDS011;66428;47.322;9.432;2023-04-03T06:50:08;8.35;;;5.68;;
77362;SDS011;66428;47.322;9.432;2023-04-03T06:52:42;9.07;;;6.28;;
77362;SDS011;66428;47.322;9.432;2023-04-03T06:55:09;9.35;;;5.88;;
77362;SDS011;66428;47.322;9.432;2023-04-03T06:57:38;10.82;;;7.45;;
77362;SDS011;66428;47.322;9.432;2023-04-03T07:00:07;8.55;;;5.68;;
77362;SDS011;66428;47.322;9.432;2023-04-03T07:02:37;8.50;;;6.10;;
77362;SDS011;66428;47.322;9.432;2023-04-03T07:07:30;11.07;;;7.35;;
77362;SDS011;66428;47.322;9.432;2023-04-03T07:10:02;10.93;;;8.98;;
77362;SDS011;66428;47.322;9.432;2023-04-03T07:15:03;10.38;;;8.05;;
77362;SDS011;66428;47.322;9.432;2023-04-03T07:17:29;10.00;;;7.85;;
77362;SDS011;66428;47.322;9.432;2023-04-03T07:19:58;10.65;;;6.65;;
77362;SDS011;66428;47.322;9.432;2023-04-03T07:22:30;9.00;;;5.88;;
77362;SDS011;66428;47.322;9.432;2023-04-03T07:25:03;12.23;;;7.40;;
77362;SDS011;66428;47.322;9.432;2023-04-03T07:27:30;9.40;;;6.45;;
77362;SDS011;66428;47.322;9.432;2023-04-03T07:29:57;9.07;;;5.95;;
77362;SDS011;66428;47.322;9.432;2023-04-03T07:32:25;12.32;;;7.88;;
77362;SDS011;66428;47.322;9.432;2023-04-03T07:34:52;8.88;;;6.13;;
77362;SDS011;66428;47.322;9.432;2023-04-03T07:37:20;11.10;;;6.10;;
77362;SDS011;66428;47.322;9.432;2023-04-03T07:39:49;10.27;;;5.57;;
77362;SDS011;66428;47.322;9.432;2023-04-03T07:42:21;9.63;;;5.68;;
77362;SDS011;66428;47.322;9.432;2023-04-03T07:44:50;9.52;;;6.00;;
77362;SDS011;66428;47.322;9.432;2023-04-03T07:47:17;7.93;;;5.85;;
77362;SDS011;66428;47.322;9.432;2023-04-03T07:49:48;8.07;;;5.32;;
77362;SDS011;66428;47.322;9.432;2023-04-03T07:52:17;9.45;;;6.15;;
77362;SDS011;66428;47.322;9.432;2023-04-03T07:54:44;10.15;;;6.53;;
77362;SDS011;66428;47.322;9.432;2023-04-03T07:57:13;9.13;;;6.13;;
77362;SDS011;66428;47.322;9.432;2023-04-03T07:59:45;11.82;;;7.65;;
77362;SDS011;66428;47.322;9.432;2023-04-03T08:02:11;9.00;;;5.88;;
77362;SDS011;66428;47.322;9.432;2023-04-03T08:04:40;9.32;;;5.72;;
77362;SDS011;66428;47.322;9.432;2023-04-03T08:07:07;9.05;;;5.18;;
77362;SDS011;66428;47.322;9.432;2023-04-03T08:09:38;8.18;;;5.22;;
77362;SDS011;66428;47.322;9.432;2023-04-03T08:12:10;7.13;;;4.93;;
77362;SDS011;66428;47.322;9.432;2023-04-03T08:14:37;7.10;;;4.63;;
77362;SDS011;66428;47.322;9.432;2023-04-03T08:17:04;8.95;;;5.72;;
77362;SDS011;66428;47.322;9.432;2023-04-03T08:19:31;7.78;;;5.30;;
77362;SDS011;66428;47.322;9.432;2023-04-03T08:22:00;9.98;;;6.07;;
77362;SDS011;66428;47.322;9.432;2023-04-03T08:24:29;8.23;;;5.65;;
77362;SDS011;66428;47.322;9.432;2023-04-03T08:26:58;8.85;;;5.05;;
77362;SDS011;66428;47.322;9.432;2023-04-03T08:29:24;7.75;;;5.03;;
77362;SDS011;66428;47.322;9.432;2023-04-03T08:31:51;6.90;;;4.57;;
77362;SDS011;66428;47.322;9.432;2023-04-03T08:34:20;8.43;;;5.15;;
77362;SDS011;66428;47.322;9.432;2023-04-03T08:36:49;7.05;;;4.70;;
77362;SDS011;66428;47.322;9.432;2023-04-03T08:39:20;7.03;;;4.05;;
77362;SDS011;66428;47.322;9.432;2023-04-03T08:41:47;6.30;;;4.10;;
77362;SDS011;66428;47.322;9.432;2023-04-03T08:49:42;7.45;;;4.45;;
77362;SDS011;66428;47.322;9.432;2023-04-03T08:52:11;4.95;;;3.58;;
77362;SDS011;66428;47.322;9.432;2023-04-03T08:54:51;5.72;;;3.55;;
77362;SDS011;66428;47.322;9.432;2023-04-03T08:57:22;6.40;;;3.83;;
77362;SDS011;66428;47.322;9.432;2023-04-03T08:59:54;6.88;;;4.25;;
77362;SDS011;66428;47.322;9.432;2023-04-03T09:02:25;6.30;;;4.25;;
77362;SDS011;66428;47.322;9.432;2023-04-03T09:04:53;6.40;;;4.20;;
77362;SDS011;66428;47.322;9.432;2023-04-03T09:09:48;6.85;;;4.35;;
77362;SDS011;66428;47.322;9.432;2023-04-03T09:12:21;9.88;;;5.03;;
77362;SDS011;66428;47.322;9.432;2023-04-03T09:20:19;7.65;;;4.97;;
77362;SDS011;66428;47.322;9.432;2023-04-03T09:22:52;7.15;;;5.05;;
77362;SDS011;66428;47.322;9.432;2023-04-03T09:25:24;8.35;;;4.88;;
77362;SDS011;66428;47.322;9.432;2023-04-03T09:27:52;7.00;;;4.85;;
77362;SDS011;66428;47.322;9.432;2023-04-03T09:30:22;9.25;;;5.22;;
77362;SDS011;66428;47.322;9.432;2023-04-03T09:32:52;5.35;;;4.00;;
77362;SDS011;66428;47.322;9.432;2023-04-03T09:38:01;7.55;;;4.72;;
77362;SDS011;66428;47.322;9.432;2023-04-03T09:40:50;8.40;;;5.15;;
77362;SDS011;66428;47.322;9.432;2023-04-03T09:43:29;6.90;;;4.82;;
77362;SDS011;66428;47.322;9.432;2023-04-03T09:46:15;8.02;;;4.97;;
77362;SDS011;66428;47.322;9.432;2023-04-03T09:49:08;7.88;;;5.00;;
77362;SDS011;66428;47.322;9.432;2023-04-03T09:51:40;7.10;;;4.60;;
77362;SDS011;66428;47.322;9.432;2023-04-03T09:54:23;7.15;;;4.65;;
77362;SDS011;66428;47.322;9.432;2023-04-03T09:56:52;6.75;;;4.80;;
77362;SDS011;66428;47.322;9.432;2023-04-03T09:59:24;7.28;;;4.82;;
77362;SDS011;66428;47.322;9.432;2023-04-03T10:02:02;7.90;;;4.88;;
77362;SDS011;66428;47.322;9.432;2023-04-03T10:04:39;7.68;;;5.50;;
77362;SDS011;66428;47.322;9.432;2023-04-03T10:10:00;7.20;;;4.68;;
77362;SDS011;66428;47.322;9.432;2023-04-03T10:12:32;8.65;;;5.90;;
77362;SDS011;66428;47.322;9.432;2023-04-03T10:15:01;9.35;;;5.53;;
77362;SDS011;66428;47.322;9.432;2023-04-03T10:20:08;7.45;;;5.32;;
77362;SDS011;66428;47.322;9.432;2023-04-03T10:31:03;7.43;;;4.75;;
77362;SDS011;66428;47.322;9.432;2023-04-03T10:38:54;7.18;;;4.80;;
77362;SDS011;66428;47.322;9.432;2023-04-03T10:41:37;7.60;;;4.28;;
77362;SDS011;66428;47.322;9.432;2023-04-03T10:44:24;8.30;;;4.32;;
77362;SDS011;66428;47.322;9.432;2023-04-03T10:46:55;10.15;;;5.68;;
77362;SDS011;66428;47.322;9.432;2023-04-03T10:49:49;7.95;;;5.05;;
77362;SDS011;66428;47.322;9.432;2023-04-03T10:57:52;8.13;;;4.50;;
77362;SDS011;66428;47.322;9.432;2023-04-03T11:00:24;6.85;;;4.32;;
77362;SDS011;66428;47.322;9.432;2023-04-03T11:02:56;7.10;;;4.43;;
77362;SDS011;66428;47.322;9.432;2023-04-03T11:07:59;5.47;;;4.15;;
77362;SDS011;66428;47.322;9.432;2023-04-03T11:10:44;5.35;;;3.88;;
77362;SDS011;66428;47.322;9.432;2023-04-03T11:13:13;6.28;;;4.18;;
77362;SDS011;66428;47.322;9.432;2023-04-03T11:15:42;5.50;;;3.53;;
77362;SDS011;66428;47.322;9.432;2023-04-03T11:18:49;6.15;;;4.00;;
77362;SDS011;66428;47.322;9.432;2023-04-03T11:21:12;5.50;;;3.85;;
77362;SDS011;66428;47.322;9.432;2023-04-03T11:23:40;6.35;;;4.30;;
77362;SDS011;66428;47.322;9.432;2023-04-03T11:26:21;5.65;;;3.72;;
77362;SDS011;66428;47.322;9.432;2023-04-03T11:36:30;6.20;;;4.43;;
77362;SDS011;66428;47.322;9.432;2023-04-03T11:39:17;6.05;;;4.03;;
77362;SDS011;66428;47.322;9.432;2023-04-03T11:41:45;8.45;;;4.05;;
77362;SDS011;66428;47.322;9.432;2023-04-03T11:52:11;6.18;;;3.60;;
77362;SDS011;66428;47.322;9.432;2023-04-03T11:54:44;5.78;;;3.55;;
77362;SDS011;66428;47.322;9.432;2023-04-03T11:57:22;6.10;;;3.90;;
77362;SDS011;66428;47.322;9.432;2023-04-03T12:00:01;5.93;;;3.47;;
77362;SDS011;66428;47.322;9.432;2023-04-03T12:02:49;6.13;;;3.50;;
77362;SDS011;66428;47.322;9.432;2023-04-03T12:05:29;5.53;;;4.03;;
77362;SDS011;66428;47.322;9.432;2023-04-03T12:13:37;7.78;;;4.28;;
77362;SDS011;66428;47.322;9.432;2023-04-03T12:16:18;6.70;;;4.53;;
77362;SDS011;66428;47.322;9.432;2023-04-03T12:24:16;7.15;;;4.55;;
77362;SDS011;66428;47.322;9.432;2023-04-03T12:45:41;6.50;;;4.63;;
77362;SDS011;66428;47.322;9.432;2023-04-03T12:48:12;8.02;;;4.25;;
77362;SDS011;66428;47.322;9.432;2023-04-03T12:50:40;7.80;;;4.32;;
77362;SDS011;66428;47.322;9.432;2023-04-03T12:53:16;6.05;;;4.22;;
77362;SDS011;66428;47.322;9.432;2023-04-03T12:55:43;8.50;;;4.50;;
77362;SDS011;66428;47.322;9.432;2023-04-03T12:58:15;6.90;;;4.15;;
77362;SDS011;66428;47.322;9.432;2023-04-03T13:00:44;6.30;;;4.40;;
77362;SDS011;66428;47.322;9.432;2023-04-03T13:03:22;5.90;;;3.75;;
77362;SDS011;66428;47.322;9.432;2023-04-03T13:05:56;5.75;;;4.00;;
77362;SDS011;66428;47.322;9.432;2023-04-03T13:08:26;5.68;;;4.30;;
77362;SDS011;66428;47.322;9.432;2023-04-03T13:10:58;7.88;;;4.78;;
77362;SDS011;66428;47.322;9.432;2023-04-03T13:13:28;7.25;;;4.20;;
77362;SDS011;66428;47.322;9.432;2023-04-03T13:15:59;6.13;;;4.45;;
77362;SDS011;66428;47.322;9.432;2023-04-03T13:18:34;5.90;;;4.25;;
77362;SDS011;66428;47.322;9.432;2023-04-03T13:21:05;6.10;;;3.97;;
77362;SDS011;66428;47.322;9.432;2023-04-03T13:23:34;5.60;;;3.83;;
77362;SDS011;66428;47.322;9.432;2023-04-03T13:26:01;6.10;;;4.38;;
77362;SDS011;66428;47.322;9.432;2023-04-03T13:28:30;5.90;;;4.10;;
77362;SDS011;66428;47.322;9.432;2023-04-03T13:33:34;6.45;;;4.20;;
77362;SDS011;66428;47.322;9.432;2023-04-03T13:36:22;7.00;;;4.45;;
77362;SDS011;66428;47.322;9.432;2023-04-03T13:39:00;6.40;;;4.25;;
77362;SDS011;66428;47.322;9.432;2023-04-03T13:41:46;5.70;;;4.20;;
77362;SDS011;66428;47.322;9.432;2023-04-03T13:46:59;5.68;;;4.05;;
77362;SDS011;66428;47.322;9.432;2023-04-03T13:51:54;6.03;;;3.88;;
77362;SDS011;66428;47.322;9.432;2023-04-03T13:54:37;5.22;;;3.58;;
77362;SDS011;66428;47.322;9.432;2023-04-03T13:57:11;6.03;;;4.10;;
77362;SDS011;66428;47.322;9.432;2023-04-03T13:59:38;6.55;;;3.78;;
77362;SDS011;66428;47.322;9.432;2023-04-03T14:07:14;5.78;;;4.00;;
77362;SDS011;66428;47.322;9.432;2023-04-03T14:09:41;10.38;;;7.25;;
77362;SDS011;66428;47.322;9.432;2023-04-03T14:12:11;14.63;;;9.65;;
77362;SDS011;66428;47.322;9.432;2023-04-03T14:14:55;5.28;;;4.22;;
77362;SDS011;66428;47.322;9.432;2023-04-03T14:17:25;5.65;;;3.90;;
77362;SDS011;66428;47.322;9.432;2023-04-03T14:19:55;5.85;;;3.78;;
77362;SDS011;66428;47.322;9.432;2023-04-03T14:22:26;7.03;;;4.05;;
77362;SDS011;66428;47.322;9.432;2023-04-03T14:24:55;6.45;;;4.55;;
77362;SDS011;66428;47.322;9.432;2023-04-03T14:27:27;6.35;;;4.53;;
77362;SDS011;66428;47.322;9.432;2023-04-03T14:29:55;5.13;;;3.75;;
77362;SDS011;66428;47.322;9.432;2023-04-03T14:32:23;5.60;;;3.65;;
77362;SDS011;66428;47.322;9.432;2023-04-03T14:34:52;6.32;;;3.60;;
77362;SDS011;66428;47.322;9.432;2023-04-03T14:37:24;4.60;;;3.72;;
77362;SDS011;66428;47.322;9.432;2023-04-03T14:39:51;7.43;;;4.95;;
77362;SDS011;66428;47.322;9.432;2023-04-03T14:42:29;5.95;;;3.70;;
77362;SDS011;66428;47.322;9.432;2023-04-03T14:44:58;4.53;;;3.63;;
77362;SDS011;66428;47.322;9.432;2023-04-03T14:47:28;4.60;;;3.55;;
77362;SDS011;66428;47.322;9.432;2023-04-03T14:50:00;5.15;;;3.75;;
77362;SDS011;66428;47.322;9.432;2023-04-03T14:52:32;7.00;;;3.95;;
77362;SDS011;66428;47.322;9.432;2023-04-03T14:55:03;4.57;;;3.45;;
77362;SDS011;66428;47.322;9.432;2023-04-03T14:57:33;5.25;;;3.38;;
77362;SDS011;66428;47.322;9.432;2023-04-03T14:59:59;4.25;;;3.40;;
77362;SDS011;66428;47.322;9.432;2023-04-03T15:05:04;5.85;;;3.40;;
77362;SDS011;66428;47.322;9.432;2023-04-03T15:07:36;4.28;;;2.97;;
77362;SDS011;66428;47.322;9.432;2023-04-03T15:10:06;4.05;;;3.15;;
77362;SDS011;66428;47.322;9.432;2023-04-03T15:12:36;5.38;;;4.20;;
77362;SDS011;66428;47.322;9.432;2023-04-03T15:15:07;5.18;;;3.70;;
77362;SDS011;66428;47.322;9.432;2023-04-03T15:17:34;4.45;;;3.45;;
77362;SDS011;66428;47.322;9.432;2023-04-03T15:20:10;5.80;;;3.80;;
77362;SDS011;66428;47.322;9.432;2023-04-03T15:22:37;4.10;;;3.00;;
77362;SDS011;66428;47.322;9.432;2023-04-03T15:25:06;5.25;;;3.55;;
77362;SDS011;66428;47.322;9.432;2023-04-03T15:27:36;6.55;;;3.90;;
77362;SDS011;66428;47.322;9.432;2023-04-03T15:30:05;5.00;;;3.53;;
77362;SDS011;66428;47.322;9.432;2023-04-03T15:32:34;4.28;;;3.33;;
77362;SDS011;66428;47.322;9.432;2023-04-03T15:35:06;4.97;;;3.42;;
77362;SDS011;66428;47.322;9.432;2023-04-03T15:37:32;3.97;;;3.03;;
77362;SDS011;66428;47.322;9.432;2023-04-03T15:40:02;4.93;;;3.60;;
77362;SDS011;66428;47.322;9.432;2023-04-03T15:42:29;6.05;;;3.45;;
77362;SDS011;66428;47.322;9.432;2023-04-03T15:45:00;4.88;;;3.63;;
77362;SDS011;66428;47.322;9.432;2023-04-03T15:49:56;4.60;;;3.55;;
77362;SDS011;66428;47.322;9.432;2023-04-03T15:52:27;4.63;;;3.40;;
77362;SDS011;66428;47.322;9.432;2023-04-03T15:54:56;6.63;;;3.70;;
77362;SDS011;66428;47.322;9.432;2023-04-03T15:57:23;4.32;;;3.75;;
77362;SDS011;66428;47.322;9.432;2023-04-03T15:59:52;4.90;;;3.58;;
77362;SDS011;66428;47.322;9.432;2023-04-03T16:02:21;4.63;;;3.30;;
77362;SDS011;66428;47.322;9.432;2023-04-03T16:04:51;5.22;;;3.58;;
77362;SDS011;66428;47.322;9.432;2023-04-03T16:07:17;4.65;;;3.58;;
77362;SDS011;66428;47.322;9.432;2023-04-03T16:09:47;7.47;;;4.05;;
77362;SDS011;66428;47.322;9.432;2023-04-03T16:12:15;5.68;;;3.65;;
77362;SDS011;66428;47.322;9.432;2023-04-03T16:14:42;5.40;;;3.50;;
77362;SDS011;66428;47.322;9.432;2023-04-03T16:17:13;4.93;;;3.53;;
77362;SDS011;66428;47.322;9.432;2023-04-03T16:19:44;4.72;;;3.45;;
77362;SDS011;66428;47.322;9.432;2023-04-03T16:22:16;4.75;;;3.97;;
77362;SDS011;66428;47.322;9.432;2023-04-03T16:24:42;6.55;;;3.63;;
77362;SDS011;66428;47.322;9.432;2023-04-03T16:27:09;5.15;;;3.47;;
77362;SDS011;66428;47.322;9.432;2023-04-03T16:29:35;4.88;;;4.13;;
77362;SDS011;66428;47.322;9.432;2023-04-03T16:34:28;5.78;;;4.10;;
77362;SDS011;66428;47.322;9.432;2023-04-03T16:36:57;4.28;;;3.05;;
77362;SDS011;66428;47.322;9.432;2023-04-03T16:39:26;4.47;;;3.72;;
77362;SDS011;66428;47.322;9.432;2023-04-03T16:41:54;6.57;;;5.13;;
77362;SDS011;66428;47.322;9.432;2023-04-03T16:44:23;8.23;;;5.80;;
77362;SDS011;66428;47.322;9.432;2023-04-03T16:46:55;7.22;;;5.13;;
77362;SDS011;66428;47.322;9.432;2023-04-03T16:51:51;3.78;;;3.33;;
77362;SDS011;66428;47.322;9.432;2023-04-03T16:54:24;5.05;;;3.92;;
77362;SDS011;66428;47.322;9.432;2023-04-03T16:56:54;5.30;;;3.67;;
77362;SDS011;66428;47.322;9.432;2023-04-03T16:59:24;5.25;;;4.15;;
77362;SDS011;66428;47.322;9.432;2023-04-03T17:01:51;5.43;;;4.60;;
77362;SDS011;66428;47.322;9.432;2023-04-03T17:04:18;6.65;;;4.10;;
77362;SDS011;66428;47.322;9.432;2023-04-03T17:06:47;4.88;;;4.15;;
77362;SDS011;66428;47.322;9.432;2023-04-03T17:09:13;6.10;;;3.38;;
77362;SDS011;66428;47.322;9.432;2023-04-03T17:11:40;5.35;;;3.50;;
77362;SDS011;66428;47.322;9.432;2023-04-03T17:14:07;4.20;;;3.55;;
77362;SDS011;66428;47.322;9.432;2023-04-03T17:16:36;5.80;;;3.60;;
77362;SDS011;66428;47.322;9.432;2023-04-03T17:19:03;6.03;;;3.53;;